sensor_id;sensor_type;location;lat;lon;timestamp;P1;durP1;ratioP1;P2;durP2;ratioP2
21810;SDS011;11067;48.788;9.208;2023-04-03T00:00:56;3.63;;;2.60;;
21810;SDS011;11067;48.788;9.208;2023-04-03T00:03:22;2.67;;;2.38;;
21810;SDS011;11067;48.788;9.208;2023-04-03T00:05:48;3.73;;;2.47;;
21810;SDS011;11067;48.788;9.208;2023-04-03T00:08:14;4.22;;;2.47;;
21810;SDS011;11067;48.788;9.208;2023-04-03T00:10:40;2.88;;;2.13;;
21810;SDS011;11067;48.788;9.208;2023-04-03T00:13:06;3.87;;;2.30;;
21810;SDS011;11067;48.788;9.208;2023-04-03T00:15:32;3.00;;;2.30;;
21810;SDS011;11067;48.788;9.208;2023-04-03T00:17:59;3.00;;;2.37;;
21810;SDS011;11067;48.788;9.208;2023-04-03T00:20:25;4.53;;;2.50;;
21810;SDS011;11067;48.788;9.208;2023-04-03T00:22:51;2.70;;;2.10;;
21810;SDS011;11067;48.788;9.208;2023-04-03T00:25:16;4.10;;;2.37;;
21810;SDS011;11067;48.788;9.208;2023-04-03T00:27:42;3.47;;;2.60;;
21810;SDS011;11067;48.788;9.208;2023-04-03T00:30:08;5.87;;;2.90;;
21810;SDS011;11067;48.788;9.208;2023-04-03T00:32:35;3.05;;;2.40;;
21810;SDS011;11067;48.788;9.208;2023-04-03T00:35:01;3.20;;;2.33;;
21810;SDS011;11067;48.788;9.208;2023-04-03T00:37:27;3.65;;;2.58;;
21810;SDS011;11067;48.788;9.208;2023-04-03T00:39:52;2.70;;;2.50;;
21810;SDS011;11067;48.788;9.208;2023-04-03T00:42:18;3.33;;;2.60;;
21810;SDS011;11067;48.788;9.208;2023-04-03T00:47:10;4.85;;;2.33;;
21810;SDS011;11067;48.788;9.208;2023-04-03T00:49:38;3.85;;;2.70;;
21810;SDS011;11067;48.788;9.208;2023-04-03T00:52:05;3.60;;;2.47;;
21810;SDS011;11067;48.788;9.208;2023-04-03T00:54:34;3.45;;;2.38;;
21810;SDS011;11067;48.788;9.208;2023-04-03T00:57:02;2.90;;;2.20;;
21810;SDS011;11067;48.788;9.208;2023-04-03T00:59:32;3.73;;;2.33;;
21810;SDS011;11067;48.788;9.208;2023-04-03T01:02:00;2.67;;;2.28;;
21810;SDS011;11067;48.788;9.208;2023-04-03T01:04:28;4.38;;;2.85;;
21810;SDS011;11067;48.788;9.208;2023-04-03T01:07:00;5.45;;;2.50;;
21810;SDS011;11067;48.788;9.208;2023-04-03T01:09:34;3.53;;;2.58;;
21810;SDS011;11067;48.788;9.208;2023-04-03T01:12:12;3.50;;;2.20;;
21810;SDS011;11067;48.788;9.208;2023-04-03T01:14:46;3.22;;;2.45;;
21810;SDS011;11067;48.788;9.208;2023-04-03T01:19:51;5.93;;;2.83;;
21810;SDS011;11067;48.788;9.208;2023-04-03T01:22:29;3.80;;;2.53;;
21810;SDS011;11067;48.788;9.208;2023-04-03T01:25:07;3.58;;;2.47;;
21810;SDS011;11067;48.788;9.208;2023-04-03T01:27:33;3.60;;;2.60;;
21810;SDS011;11067;48.788;9.208;2023-04-03T01:29:58;3.35;;;2.55;;
21810;SDS011;11067;48.788;9.208;2023-04-03T01:32:24;4.32;;;2.67;;
21810;SDS011;11067;48.788;9.208;2023-04-03T01:34:49;4.53;;;2.53;;
21810;SDS011;11067;48.788;9.208;2023-04-03T01:37:15;3.83;;;2.57;;
21810;SDS011;11067;48.788;9.208;2023-04-03T01:39:40;2.57;;;2.30;;
21810;SDS011;11067;48.788;9.208;2023-04-03T01:42:06;4.37;;;2.50;;
21810;SDS011;11067;48.788;9.208;2023-04-03T01:44:31;5.15;;;2.70;;
21810;SDS011;11067;48.788;9.208;2023-04-03T01:46:57;3.28;;;2.47;;
21810;SDS011;11067;48.788;9.208;2023-04-03T01:49:22;3.15;;;2.17;;
21810;SDS011;11067;48.788;9.208;2023-04-03T01:51:48;2.77;;;2.33;;
21810;SDS011;11067;48.788;9.208;2023-04-03T01:54:13;3.90;;;2.90;;
21810;SDS011;11067;48.788;9.208;2023-04-03T01:56:39;3.67;;;2.17;;
21810;SDS011;11067;48.788;9.208;2023-04-03T01:59:04;2.77;;;2.33;;
21810;SDS011;11067;48.788;9.208;2023-04-03T02:01:30;3.00;;;2.33;;
21810;SDS011;11067;48.788;9.208;2023-04-03T02:03:55;2.95;;;2.53;;
21810;SDS011;11067;48.788;9.208;2023-04-03T02:06:21;3.83;;;2.50;;
21810;SDS011;11067;48.788;9.208;2023-04-03T02:08:46;3.00;;;2.13;;
21810;SDS011;11067;48.788;9.208;2023-04-03T02:11:12;3.17;;;2.43;;
21810;SDS011;11067;48.788;9.208;2023-04-03T02:13:38;4.60;;;2.60;;
21810;SDS011;11067;48.788;9.208;2023-04-03T02:16:07;5.07;;;2.75;;
21810;SDS011;11067;48.788;9.208;2023-04-03T02:18:34;3.20;;;2.50;;
21810;SDS011;11067;48.788;9.208;2023-04-03T02:21:00;3.08;;;2.25;;
21810;SDS011;11067;48.788;9.208;2023-04-03T02:23:26;4.07;;;2.63;;
21810;SDS011;11067;48.788;9.208;2023-04-03T02:25:51;3.03;;;2.30;;
21810;SDS011;11067;48.788;9.208;2023-04-03T02:28:17;3.80;;;2.60;;
21810;SDS011;11067;48.788;9.208;2023-04-03T02:30:42;5.03;;;2.90;;
21810;SDS011;11067;48.788;9.208;2023-04-03T02:33:08;3.60;;;2.70;;
21810;SDS011;11067;48.788;9.208;2023-04-03T02:35:33;3.17;;;2.47;;
21810;SDS011;11067;48.788;9.208;2023-04-03T02:37:59;4.50;;;2.60;;
21810;SDS011;11067;48.788;9.208;2023-04-03T02:40:24;4.17;;;2.73;;
21810;SDS011;11067;48.788;9.208;2023-04-03T02:42:50;3.07;;;2.60;;
21810;SDS011;11067;48.788;9.208;2023-04-03T02:45:15;3.58;;;2.60;;
21810;SDS011;11067;48.788;9.208;2023-04-03T02:47:41;3.85;;;2.97;;
21810;SDS011;11067;48.788;9.208;2023-04-03T02:50:06;3.85;;;2.63;;
21810;SDS011;11067;48.788;9.208;2023-04-03T02:52:32;4.22;;;2.90;;
21810;SDS011;11067;48.788;9.208;2023-04-03T02:54:58;4.85;;;2.70;;
21810;SDS011;11067;48.788;9.208;2023-04-03T02:57:23;4.50;;;3.00;;
21810;SDS011;11067;48.788;9.208;2023-04-03T02:59:49;4.47;;;2.70;;
21810;SDS011;11067;48.788;9.208;2023-04-03T03:02:14;4.40;;;2.70;;
21810;SDS011;11067;48.788;9.208;2023-04-03T03:04:40;3.53;;;2.43;;
21810;SDS011;11067;48.788;9.208;2023-04-03T03:07:05;4.43;;;2.87;;
21810;SDS011;11067;48.788;9.208;2023-04-03T03:09:31;2.85;;;2.40;;
21810;SDS011;11067;48.788;9.208;2023-04-03T03:11:57;4.25;;;2.70;;
21810;SDS011;11067;48.788;9.208;2023-04-03T03:14:23;3.13;;;2.43;;
21810;SDS011;11067;48.788;9.208;2023-04-03T03:16:48;3.75;;;2.67;;
21810;SDS011;11067;48.788;9.208;2023-04-03T03:19:14;3.92;;;2.53;;
21810;SDS011;11067;48.788;9.208;2023-04-03T03:21:39;2.70;;;2.20;;
21810;SDS011;11067;48.788;9.208;2023-04-03T03:24:05;3.77;;;2.53;;
21810;SDS011;11067;48.788;9.208;2023-04-03T03:26:31;4.00;;;2.80;;
21810;SDS011;11067;48.788;9.208;2023-04-03T03:28:57;3.77;;;3.00;;
21810;SDS011;11067;48.788;9.208;2023-04-03T03:31:22;4.40;;;2.80;;
21810;SDS011;11067;48.788;9.208;2023-04-03T03:33:48;3.53;;;2.43;;
21810;SDS011;11067;48.788;9.208;2023-04-03T03:36:13;3.17;;;2.42;;
21810;SDS011;11067;48.788;9.208;2023-04-03T03:38:39;3.20;;;2.60;;
21810;SDS011;11067;48.788;9.208;2023-04-03T03:41:05;3.63;;;2.67;;
21810;SDS011;11067;48.788;9.208;2023-04-03T03:43:31;3.47;;;2.25;;
21810;SDS011;11067;48.788;9.208;2023-04-03T03:45:56;3.43;;;2.20;;
21810;SDS011;11067;48.788;9.208;2023-04-03T03:48:22;4.80;;;2.67;;
21810;SDS011;11067;48.788;9.208;2023-04-03T03:50:48;2.87;;;2.20;;
21810;SDS011;11067;48.788;9.208;2023-04-03T03:53:14;2.20;;;2.00;;
21810;SDS011;11067;48.788;9.208;2023-04-03T03:55:40;3.85;;;2.30;;
21810;SDS011;11067;48.788;9.208;2023-04-03T03:58:06;3.97;;;2.23;;
21810;SDS011;11067;48.788;9.208;2023-04-03T04:00:32;3.50;;;2.10;;
21810;SDS011;11067;48.788;9.208;2023-04-03T04:02:58;2.50;;;2.30;;
21810;SDS011;11067;48.788;9.208;2023-04-03T04:05:23;2.67;;;2.08;;
21810;SDS011;11067;48.788;9.208;2023-04-03T04:07:49;5.00;;;2.47;;
21810;SDS011;11067;48.788;9.208;2023-04-03T04:10:15;3.40;;;2.40;;
21810;SDS011;11067;48.788;9.208;2023-04-03T04:12:41;3.40;;;2.72;;
21810;SDS011;11067;48.788;9.208;2023-04-03T04:15:07;4.53;;;2.50;;
21810;SDS011;11067;48.788;9.208;2023-04-03T04:17:33;5.20;;;2.78;;
21810;SDS011;11067;48.788;9.208;2023-04-03T04:20:00;4.10;;;2.50;;
21810;SDS011;11067;48.788;9.208;2023-04-03T04:22:26;4.75;;;2.50;;
21810;SDS011;11067;48.788;9.208;2023-04-03T04:24:51;4.20;;;2.58;;
21810;SDS011;11067;48.788;9.208;2023-04-03T04:27:17;3.93;;;2.60;;
21810;SDS011;11067;48.788;9.208;2023-04-03T04:29:42;5.23;;;3.00;;
21810;SDS011;11067;48.788;9.208;2023-04-03T04:32:08;4.73;;;3.07;;
21810;SDS011;11067;48.788;9.208;2023-04-03T04:34:33;4.73;;;3.00;;
21810;SDS011;11067;48.788;9.208;2023-04-03T04:36:59;4.65;;;2.60;;
21810;SDS011;11067;48.788;9.208;2023-04-03T04:39:25;3.20;;;2.37;;
21810;SDS011;11067;48.788;9.208;2023-04-03T04:41:51;5.47;;;2.83;;
21810;SDS011;11067;48.788;9.208;2023-04-03T04:44:16;5.33;;;2.90;;
21810;SDS011;11067;48.788;9.208;2023-04-03T04:46:42;4.50;;;2.67;;
21810;SDS011;11067;48.788;9.208;2023-04-03T04:49:07;3.80;;;2.40;;
21810;SDS011;11067;48.788;9.208;2023-04-03T04:51:33;3.63;;;2.40;;
21810;SDS011;11067;48.788;9.208;2023-04-03T04:53:58;4.50;;;2.67;;
21810;SDS011;11067;48.788;9.208;2023-04-03T04:56:24;5.47;;;2.97;;
21810;SDS011;11067;48.788;9.208;2023-04-03T04:58:50;5.20;;;2.40;;
21810;SDS011;11067;48.788;9.208;2023-04-03T05:01:15;3.40;;;2.50;;
21810;SDS011;11067;48.788;9.208;2023-04-03T05:03:41;3.03;;;2.20;;
21810;SDS011;11067;48.788;9.208;2023-04-03T05:06:06;2.70;;;2.10;;
21810;SDS011;11067;48.788;9.208;2023-04-03T05:08:32;4.15;;;2.55;;
21810;SDS011;11067;48.788;9.208;2023-04-03T05:10:57;6.13;;;2.72;;
21810;SDS011;11067;48.788;9.208;2023-04-03T05:13:23;2.25;;;1.98;;
21810;SDS011;11067;48.788;9.208;2023-04-03T05:15:49;2.70;;;2.13;;
21810;SDS011;11067;48.788;9.208;2023-04-03T05:18:14;3.67;;;2.60;;
21810;SDS011;11067;48.788;9.208;2023-04-03T05:20:40;2.90;;;2.10;;
21810;SDS011;11067;48.788;9.208;2023-04-03T05:23:05;3.13;;;2.40;;
21810;SDS011;11067;48.788;9.208;2023-04-03T05:25:31;4.30;;;2.67;;
21810;SDS011;11067;48.788;9.208;2023-04-03T05:27:57;2.63;;;2.27;;
21810;SDS011;11067;48.788;9.208;2023-04-03T05:30:22;4.50;;;2.37;;
21810;SDS011;11067;48.788;9.208;2023-04-03T05:32:48;6.07;;;2.50;;
21810;SDS011;11067;48.788;9.208;2023-04-03T05:35:14;6.00;;;2.53;;
21810;SDS011;11067;48.788;9.208;2023-04-03T05:37:39;4.30;;;2.57;;
21810;SDS011;11067;48.788;9.208;2023-04-03T05:40:05;2.70;;;2.42;;
21810;SDS011;11067;48.788;9.208;2023-04-03T05:42:32;4.78;;;2.30;;
21810;SDS011;11067;48.788;9.208;2023-04-03T05:44:57;3.73;;;2.80;;
21810;SDS011;11067;48.788;9.208;2023-04-03T05:47:23;3.13;;;2.30;;
21810;SDS011;11067;48.788;9.208;2023-04-03T05:49:48;2.93;;;2.10;;
21810;SDS011;11067;48.788;9.208;2023-04-03T05:52:21;3.30;;;2.23;;
21810;SDS011;11067;48.788;9.208;2023-04-03T05:54:55;3.03;;;1.97;;
21810;SDS011;11067;48.788;9.208;2023-04-03T05:57:21;5.03;;;2.65;;
21810;SDS011;11067;48.788;9.208;2023-04-03T05:59:47;3.92;;;2.50;;
21810;SDS011;11067;48.788;9.208;2023-04-03T06:02:13;3.30;;;2.27;;
21810;SDS011;11067;48.788;9.208;2023-04-03T06:04:41;3.60;;;2.25;;
21810;SDS011;11067;48.788;9.208;2023-04-03T06:07:08;6.38;;;2.30;;
21810;SDS011;11067;48.788;9.208;2023-04-03T06:09:37;3.58;;;2.13;;
21810;SDS011;11067;48.788;9.208;2023-04-03T06:12:02;3.77;;;2.40;;
21810;SDS011;11067;48.788;9.208;2023-04-03T06:14:28;5.63;;;2.60;;
21810;SDS011;11067;48.788;9.208;2023-04-03T06:16:53;5.53;;;2.37;;
21810;SDS011;11067;48.788;9.208;2023-04-03T06:19:19;5.50;;;2.30;;
21810;SDS011;11067;48.788;9.208;2023-04-03T06:21:45;3.50;;;2.40;;
21810;SDS011;11067;48.788;9.208;2023-04-03T06:24:12;5.90;;;2.40;;
21810;SDS011;11067;48.788;9.208;2023-04-03T06:26:40;3.20;;;2.13;;
21810;SDS011;11067;48.788;9.208;2023-04-03T06:29:05;3.50;;;2.42;;
21810;SDS011;11067;48.788;9.208;2023-04-03T06:31:31;4.03;;;2.08;;
21810;SDS011;11067;48.788;9.208;2023-04-03T06:33:56;5.28;;;2.75;;
21810;SDS011;11067;48.788;9.208;2023-04-03T06:36:22;4.00;;;2.33;;
21810;SDS011;11067;48.788;9.208;2023-04-03T06:38:48;3.70;;;2.40;;
21810;SDS011;11067;48.788;9.208;2023-04-03T06:41:14;4.63;;;2.40;;
21810;SDS011;11067;48.788;9.208;2023-04-03T06:43:41;3.40;;;2.07;;
21810;SDS011;11067;48.788;9.208;2023-04-03T06:46:10;3.05;;;2.17;;
21810;SDS011;11067;48.788;9.208;2023-04-03T06:48:41;3.17;;;2.40;;
21810;SDS011;11067;48.788;9.208;2023-04-03T06:51:11;4.95;;;2.42;;
21810;SDS011;11067;48.788;9.208;2023-04-03T06:53:43;5.68;;;2.50;;
21810;SDS011;11067;48.788;9.208;2023-04-03T06:56:08;2.73;;;2.10;;
21810;SDS011;11067;48.788;9.208;2023-04-03T06:58:34;3.58;;;2.35;;
21810;SDS011;11067;48.788;9.208;2023-04-03T07:01:01;4.07;;;2.50;;
21810;SDS011;11067;48.788;9.208;2023-04-03T07:03:26;5.38;;;2.47;;
21810;SDS011;11067;48.788;9.208;2023-04-03T07:05:52;4.13;;;2.40;;
21810;SDS011;11067;48.788;9.208;2023-04-03T07:08:18;3.25;;;2.13;;
21810;SDS011;11067;48.788;9.208;2023-04-03T07:10:43;3.67;;;2.40;;
21810;SDS011;11067;48.788;9.208;2023-04-03T07:13:09;2.80;;;2.30;;
21810;SDS011;11067;48.788;9.208;2023-04-03T07:15:34;3.67;;;2.33;;
21810;SDS011;11067;48.788;9.208;2023-04-03T07:18:01;3.00;;;2.20;;
21810;SDS011;11067;48.788;9.208;2023-04-03T07:20:26;5.75;;;2.70;;
21810;SDS011;11067;48.788;9.208;2023-04-03T07:22:52;4.47;;;2.47;;
21810;SDS011;11067;48.788;9.208;2023-04-03T07:25:17;4.35;;;2.47;;
21810;SDS011;11067;48.788;9.208;2023-04-03T07:27:43;4.97;;;2.80;;
21810;SDS011;11067;48.788;9.208;2023-04-03T07:30:09;3.08;;;2.42;;
21810;SDS011;11067;48.788;9.208;2023-04-03T07:32:35;4.78;;;2.50;;
21810;SDS011;11067;48.788;9.208;2023-04-03T07:35:00;2.65;;;2.00;;
21810;SDS011;11067;48.788;9.208;2023-04-03T07:37:26;6.30;;;2.35;;
21810;SDS011;11067;48.788;9.208;2023-04-03T07:39:51;8.35;;;3.08;;
21810;SDS011;11067;48.788;9.208;2023-04-03T07:42:17;5.20;;;2.60;;
21810;SDS011;11067;48.788;9.208;2023-04-03T07:44:42;5.97;;;2.63;;
21810;SDS011;11067;48.788;9.208;2023-04-03T07:47:08;2.47;;;2.17;;
21810;SDS011;11067;48.788;9.208;2023-04-03T07:49:34;7.60;;;2.53;;
21810;SDS011;11067;48.788;9.208;2023-04-03T07:52:02;3.67;;;2.40;;
21810;SDS011;11067;48.788;9.208;2023-04-03T07:54:29;3.88;;;2.30;;
21810;SDS011;11067;48.788;9.208;2023-04-03T07:56:55;4.60;;;2.22;;
21810;SDS011;11067;48.788;9.208;2023-04-03T07:59:21;2.55;;;2.20;;
21810;SDS011;11067;48.788;9.208;2023-04-03T08:01:47;3.83;;;2.50;;
21810;SDS011;11067;48.788;9.208;2023-04-03T08:04:12;4.10;;;2.67;;
21810;SDS011;11067;48.788;9.208;2023-04-03T08:06:38;3.72;;;2.70;;
21810;SDS011;11067;48.788;9.208;2023-04-03T08:09:03;3.60;;;2.40;;
21810;SDS011;11067;48.788;9.208;2023-04-03T08:11:29;4.43;;;2.23;;
21810;SDS011;11067;48.788;9.208;2023-04-03T08:13:55;5.63;;;2.30;;
21810;SDS011;11067;48.788;9.208;2023-04-03T08:16:22;3.50;;;2.20;;
21810;SDS011;11067;48.788;9.208;2023-04-03T08:18:50;5.90;;;2.83;;
21810;SDS011;11067;48.788;9.208;2023-04-03T08:21:16;6.40;;;2.50;;
21810;SDS011;11067;48.788;9.208;2023-04-03T08:23:41;4.20;;;2.60;;
21810;SDS011;11067;48.788;9.208;2023-04-03T08:26:08;2.60;;;2.27;;
21810;SDS011;11067;48.788;9.208;2023-04-03T08:28:35;4.32;;;2.53;;
21810;SDS011;11067;48.788;9.208;2023-04-03T08:31:09;3.33;;;2.53;;
21810;SDS011;11067;48.788;9.208;2023-04-03T08:33:37;4.20;;;2.40;;
21810;SDS011;11067;48.788;9.208;2023-04-03T08:36:04;3.83;;;2.33;;
21810;SDS011;11067;48.788;9.208;2023-04-03T08:38:31;3.80;;;2.50;;
21810;SDS011;11067;48.788;9.208;2023-04-03T08:41:18;3.47;;;2.65;;
21810;SDS011;11067;48.788;9.208;2023-04-03T08:49:28;4.55;;;3.00;;
21810;SDS011;11067;48.788;9.208;2023-04-03T08:52:01;2.83;;;2.33;;
21810;SDS011;11067;48.788;9.208;2023-04-03T08:54:32;4.20;;;2.45;;
21810;SDS011;11067;48.788;9.208;2023-04-03T08:57:00;8.15;;;2.63;;
21810;SDS011;11067;48.788;9.208;2023-04-03T08:59:31;2.72;;;2.20;;
21810;SDS011;11067;48.788;9.208;2023-04-03T09:02:01;4.00;;;2.60;;
21810;SDS011;11067;48.788;9.208;2023-04-03T09:04:37;4.90;;;2.80;;
21810;SDS011;11067;48.788;9.208;2023-04-03T09:07:05;3.03;;;2.45;;
21810;SDS011;11067;48.788;9.208;2023-04-03T09:09:39;4.43;;;2.60;;
21810;SDS011;11067;48.788;9.208;2023-04-03T09:14:57;3.67;;;2.20;;
21810;SDS011;11067;48.788;9.208;2023-04-03T09:17:46;3.47;;;2.17;;
21810;SDS011;11067;48.788;9.208;2023-04-03T09:25:48;4.65;;;2.60;;
21810;SDS011;11067;48.788;9.208;2023-04-03T09:28:16;6.13;;;2.60;;
21810;SDS011;11067;48.788;9.208;2023-04-03T09:30:42;5.05;;;2.70;;
21810;SDS011;11067;48.788;9.208;2023-04-03T09:33:08;3.67;;;2.15;;
21810;SDS011;11067;48.788;9.208;2023-04-03T09:35:35;3.95;;;2.20;;
21810;SDS011;11067;48.788;9.208;2023-04-03T09:38:22;3.95;;;2.33;;
21810;SDS011;11067;48.788;9.208;2023-04-03T09:43:31;4.15;;;2.40;;
21810;SDS011;11067;48.788;9.208;2023-04-03T09:46:16;4.05;;;2.17;;
21810;SDS011;11067;48.788;9.208;2023-04-03T09:48:56;4.43;;;2.20;;
21810;SDS011;11067;48.788;9.208;2023-04-03T09:51:26;4.28;;;2.25;;
21810;SDS011;11067;48.788;9.208;2023-04-03T09:53:52;3.25;;;2.30;;
21810;SDS011;11067;48.788;9.208;2023-04-03T09:58:47;3.50;;;2.22;;
21810;SDS011;11067;48.788;9.208;2023-04-03T10:01:30;6.45;;;2.50;;
21810;SDS011;11067;48.788;9.208;2023-04-03T10:04:11;7.15;;;4.28;;
21810;SDS011;11067;48.788;9.208;2023-04-03T10:06:41;3.55;;;2.20;;
21810;SDS011;11067;48.788;9.208;2023-04-03T10:09:28;3.05;;;2.65;;
21810;SDS011;11067;48.788;9.208;2023-04-03T10:14:24;5.83;;;2.27;;
21810;SDS011;11067;48.788;9.208;2023-04-03T10:16:53;4.85;;;2.30;;
21810;SDS011;11067;48.788;9.208;2023-04-03T10:19:35;3.50;;;2.20;;
21810;SDS011;11067;48.788;9.208;2023-04-03T10:22:35;3.35;;;2.10;;
21810;SDS011;11067;48.788;9.208;2023-04-03T10:28:00;3.95;;;2.17;;
21810;SDS011;11067;48.788;9.208;2023-04-03T10:30:31;1.90;;;1.70;;
21810;SDS011;11067;48.788;9.208;2023-04-03T10:40:53;2.60;;;2.03;;
21810;SDS011;11067;48.788;9.208;2023-04-03T10:43:23;5.27;;;2.40;;
21810;SDS011;11067;48.788;9.208;2023-04-03T10:48:44;5.35;;;3.22;;
21810;SDS011;11067;48.788;9.208;2023-04-03T10:54:31;3.37;;;1.90;;
21810;SDS011;11067;48.788;9.208;2023-04-03T10:57:11;2.90;;;2.00;;
21810;SDS011;11067;48.788;9.208;2023-04-03T11:04:48;2.13;;;1.60;;
21810;SDS011;11067;48.788;9.208;2023-04-03T11:07:20;3.20;;;1.70;;
21810;SDS011;11067;48.788;9.208;2023-04-03T11:09:51;3.27;;;1.77;;
21810;SDS011;11067;48.788;9.208;2023-04-03T11:12:28;2.50;;;1.60;;
21810;SDS011;11067;48.788;9.208;2023-04-03T11:15:00;2.28;;;1.85;;
21810;SDS011;11067;48.788;9.208;2023-04-03T11:17:31;4.90;;;2.50;;
21810;SDS011;11067;48.788;9.208;2023-04-03T11:22:53;3.63;;;1.45;;
21810;SDS011;11067;48.788;9.208;2023-04-03T11:25:25;3.47;;;1.80;;
21810;SDS011;11067;48.788;9.208;2023-04-03T11:27:55;4.18;;;1.70;;
21810;SDS011;11067;48.788;9.208;2023-04-03T11:30:27;3.70;;;1.90;;
21810;SDS011;11067;48.788;9.208;2023-04-03T11:33:27;2.40;;;1.75;;
21810;SDS011;11067;48.788;9.208;2023-04-03T11:35:55;4.33;;;2.10;;
21810;SDS011;11067;48.788;9.208;2023-04-03T11:38:26;3.40;;;2.30;;
21810;SDS011;11067;48.788;9.208;2023-04-03T11:40:55;4.10;;;2.13;;
21810;SDS011;11067;48.788;9.208;2023-04-03T11:43:27;2.65;;;1.92;;
21810;SDS011;11067;48.788;9.208;2023-04-03T11:51:00;2.83;;;1.90;;
21810;SDS011;11067;48.788;9.208;2023-04-03T11:53:46;2.97;;;1.88;;
21810;SDS011;11067;48.788;9.208;2023-04-03T12:04:10;3.37;;;1.90;;
21810;SDS011;11067;48.788;9.208;2023-04-03T12:18:31;8.65;;;2.10;;
21810;SDS011;11067;48.788;9.208;2023-04-03T12:21:02;4.45;;;2.20;;
21810;SDS011;11067;48.788;9.208;2023-04-03T12:23:30;2.90;;;2.03;;
21810;SDS011;11067;48.788;9.208;2023-04-03T12:26:04;3.92;;;1.98;;
21810;SDS011;11067;48.788;9.208;2023-04-03T12:28:44;4.30;;;1.77;;
21810;SDS011;11067;48.788;9.208;2023-04-03T12:31:11;3.63;;;1.80;;
21810;SDS011;11067;48.788;9.208;2023-04-03T12:33:46;2.95;;;2.00;;
21810;SDS011;11067;48.788;9.208;2023-04-03T12:36:35;4.77;;;2.10;;
21810;SDS011;11067;48.788;9.208;2023-04-03T12:41:58;4.75;;;2.00;;
21810;SDS011;11067;48.788;9.208;2023-04-03T12:45:02;2.03;;;1.80;;
21810;SDS011;11067;48.788;9.208;2023-04-03T12:47:36;4.82;;;1.90;;
21810;SDS011;11067;48.788;9.208;2023-04-03T12:50:13;2.45;;;1.90;;
21810;SDS011;11067;48.788;9.208;2023-04-03T12:53:04;3.63;;;1.90;;
21810;SDS011;11067;48.788;9.208;2023-04-03T12:55:38;4.00;;;1.87;;
21810;SDS011;11067;48.788;9.208;2023-04-03T12:58:19;5.45;;;1.85;;
21810;SDS011;11067;48.788;9.208;2023-04-03T13:03:27;3.05;;;1.75;;
21810;SDS011;11067;48.788;9.208;2023-04-03T13:05:57;2.40;;;1.70;;
21810;SDS011;11067;48.788;9.208;2023-04-03T13:08:25;3.58;;;1.88;;
21810;SDS011;11067;48.788;9.208;2023-04-03T13:13:27;1.98;;;1.42;;
21810;SDS011;11067;48.788;9.208;2023-04-03T13:15:54;3.20;;;1.58;;
21810;SDS011;11067;48.788;9.208;2023-04-03T13:21:08;2.88;;;1.63;;
21810;SDS011;11067;48.788;9.208;2023-04-03T13:23:42;2.58;;;1.60;;
21810;SDS011;11067;48.788;9.208;2023-04-03T13:26:12;3.65;;;2.00;;
21810;SDS011;11067;48.788;9.208;2023-04-03T13:28:41;2.90;;;1.83;;
21810;SDS011;11067;48.788;9.208;2023-04-03T13:36:31;3.15;;;1.85;;
21810;SDS011;11067;48.788;9.208;2023-04-03T13:39:18;4.43;;;1.90;;
21810;SDS011;11067;48.788;9.208;2023-04-03T13:41:48;3.50;;;1.77;;
21810;SDS011;11067;48.788;9.208;2023-04-03T13:46:53;2.88;;;1.77;;
21810;SDS011;11067;48.788;9.208;2023-04-03T13:51:54;3.58;;;1.80;;
21810;SDS011;11067;48.788;9.208;2023-04-03T13:56:54;2.85;;;1.77;;
21810;SDS011;11067;48.788;9.208;2023-04-03T13:59:32;4.15;;;2.17;;
21810;SDS011;11067;48.788;9.208;2023-04-03T14:04:32;2.55;;;1.77;;
21810;SDS011;11067;48.788;9.208;2023-04-03T14:07:07;3.47;;;2.07;;
21810;SDS011;11067;48.788;9.208;2023-04-03T14:09:32;3.87;;;2.20;;
21810;SDS011;11067;48.788;9.208;2023-04-03T14:15:01;3.55;;;2.10;;
21810;SDS011;11067;48.788;9.208;2023-04-03T14:17:37;2.63;;;2.10;;
21810;SDS011;11067;48.788;9.208;2023-04-03T14:20:03;3.88;;;2.00;;
21810;SDS011;11067;48.788;9.208;2023-04-03T14:22:32;2.88;;;1.80;;
21810;SDS011;11067;48.788;9.208;2023-04-03T14:24:59;3.80;;;2.00;;
21810;SDS011;11067;48.788;9.208;2023-04-03T14:27:33;3.15;;;1.83;;
21810;SDS011;11067;48.788;9.208;2023-04-03T14:30:00;2.63;;;2.00;;
21810;SDS011;11067;48.788;9.208;2023-04-03T14:32:28;4.05;;;1.80;;
21810;SDS011;11067;48.788;9.208;2023-04-03T14:34:55;3.67;;;2.20;;
21810;SDS011;11067;48.788;9.208;2023-04-03T14:37:23;2.00;;;1.80;;
21810;SDS011;11067;48.788;9.208;2023-04-03T14:39:52;2.78;;;1.85;;
21810;SDS011;11067;48.788;9.208;2023-04-03T14:42:22;3.17;;;1.60;;
21810;SDS011;11067;48.788;9.208;2023-04-03T14:44:50;3.95;;;1.88;;
21810;SDS011;11067;48.788;9.208;2023-04-03T14:47:18;4.00;;;2.13;;
21810;SDS011;11067;48.788;9.208;2023-04-03T14:49:47;2.87;;;1.90;;
21810;SDS011;11067;48.788;9.208;2023-04-03T14:52:23;2.60;;;1.50;;
21810;SDS011;11067;48.788;9.208;2023-04-03T14:54:54;2.78;;;1.70;;
21810;SDS011;11067;48.788;9.208;2023-04-03T14:57:21;5.80;;;2.55;;
21810;SDS011;11067;48.788;9.208;2023-04-03T14:59:49;4.15;;;2.20;;
21810;SDS011;11067;48.788;9.208;2023-04-03T15:02:32;3.05;;;2.00;;
21810;SDS011;11067;48.788;9.208;2023-04-03T15:05:00;4.47;;;1.87;;
21810;SDS011;11067;48.788;9.208;2023-04-03T15:07:29;3.40;;;1.88;;
21810;SDS011;11067;48.788;9.208;2023-04-03T15:09:57;3.90;;;2.00;;
21810;SDS011;11067;48.788;9.208;2023-04-03T15:12:24;3.03;;;1.67;;
21810;SDS011;11067;48.788;9.208;2023-04-03T15:14:50;2.38;;;1.52;;
21810;SDS011;11067;48.788;9.208;2023-04-03T15:17:16;5.18;;;1.80;;
21810;SDS011;11067;48.788;9.208;2023-04-03T15:19:45;2.75;;;1.48;;
21810;SDS011;11067;48.788;9.208;2023-04-03T15:22:14;2.87;;;1.87;;
21810;SDS011;11067;48.788;9.208;2023-04-03T15:24:41;4.70;;;1.77;;
21810;SDS011;11067;48.788;9.208;2023-04-03T15:27:08;3.40;;;1.85;;
21810;SDS011;11067;48.788;9.208;2023-04-03T15:29:34;2.45;;;1.77;;
21810;SDS011;11067;48.788;9.208;2023-04-03T15:32:00;5.47;;;2.15;;
21810;SDS011;11067;48.788;9.208;2023-04-03T15:34:25;3.13;;;1.52;;
21810;SDS011;11067;48.788;9.208;2023-04-03T15:36:52;2.60;;;1.75;;
21810;SDS011;11067;48.788;9.208;2023-04-03T15:39:18;2.73;;;1.73;;
21810;SDS011;11067;48.788;9.208;2023-04-03T15:41:43;2.17;;;1.80;;
21810;SDS011;11067;48.788;9.208;2023-04-03T15:44:10;2.50;;;1.73;;
21810;SDS011;11067;48.788;9.208;2023-04-03T15:46:37;4.17;;;2.07;;
21810;SDS011;11067;48.788;9.208;2023-04-03T15:49:03;3.13;;;2.20;;
21810;SDS011;11067;48.788;9.208;2023-04-03T15:51:30;3.53;;;2.28;;
21810;SDS011;11067;48.788;9.208;2023-04-03T15:53:55;3.60;;;2.10;;
21810;SDS011;11067;48.788;9.208;2023-04-03T15:56:21;3.72;;;2.10;;
21810;SDS011;11067;48.788;9.208;2023-04-03T15:58:46;3.05;;;2.00;;
21810;SDS011;11067;48.788;9.208;2023-04-03T16:01:12;3.53;;;1.95;;
21810;SDS011;11067;48.788;9.208;2023-04-03T16:03:39;3.10;;;1.90;;
21810;SDS011;11067;48.788;9.208;2023-04-03T16:06:09;3.78;;;1.92;;
21810;SDS011;11067;48.788;9.208;2023-04-03T16:08:36;3.20;;;2.20;;
21810;SDS011;11067;48.788;9.208;2023-04-03T16:11:02;2.50;;;1.80;;
21810;SDS011;11067;48.788;9.208;2023-04-03T16:13:28;4.90;;;1.92;;
21810;SDS011;11067;48.788;9.208;2023-04-03T16:15:54;2.63;;;1.70;;
21810;SDS011;11067;48.788;9.208;2023-04-03T16:18:20;2.40;;;1.65;;
21810;SDS011;11067;48.788;9.208;2023-04-03T16:20:45;2.60;;;1.80;;
21810;SDS011;11067;48.788;9.208;2023-04-03T16:23:11;2.53;;;1.58;;
21810;SDS011;11067;48.788;9.208;2023-04-03T16:25:37;2.35;;;1.75;;
21810;SDS011;11067;48.788;9.208;2023-04-03T16:28:03;2.80;;;1.70;;
21810;SDS011;11067;48.788;9.208;2023-04-03T16:30:28;3.17;;;1.97;;
21810;SDS011;11067;48.788;9.208;2023-04-03T16:32:54;3.55;;;1.92;;
21810;SDS011;11067;48.788;9.208;2023-04-03T16:35:21;3.50;;;1.90;;
21810;SDS011;11067;48.788;9.208;2023-04-03T16:37:47;2.75;;;1.88;;
21810;SDS011;11067;48.788;9.208;2023-04-03T16:40:13;2.88;;;1.90;;